Time;durP1;ratioP1;P1;durP2;ratioP2;P2;SDS_P1;SDS_P2;PMS_P1;PMS_P2;Temp;Humidity;BMP_temperature;BMP_pressure;BME280_temperature;BME280_humidity;BME280_pressure;Samples;Min_cycle;Max_cycle;Signal;HPM_P1;HPM_P2
2022/01/03 00:02:26;;;;;;;54.47;37.60;;;;;;;;;;5013152;28;20018;-64
2022/01/03 00:04:53;;;;;;;54.77;36.73;;;;;;;;;;5014546;28;20042;-64
2022/01/03 00:07:19;;;;;;;51.43;37.20;;;;;;;;;;5013567;28;20391;-64
2022/01/03 00:09:45;;;;;;;50.87;36.17;;;;;;;;;;5014729;28;20034;-64
2022/01/03 00:12:12;;;;;;;51.03;35.67;;;;;;;;;;5015637;28;20049;-63
2022/01/03 00:14:39;;;;;;;49.03;34.90;;;;;;;;;;5016520;28;20029;-64
2022/01/03 00:17:05;;;;;;;46.27;34.03;;;;;;;;;;5012616;28;20442;-64
2022/01/03 00:19:32;;;;;;;42.87;32.60;;;;;;;;;;5014334;28;20105;-64
2022/01/03 00:21:59;;;;;;;38.93;30.80;;;;;;;;;;5013337;28;20018;-63
2022/01/03 00:24:26;;;;;;;44.63;32.63;;;;;;;;;;5010741;28;20027;-64
2022/01/03 00:26:59;;;;;;;44.03;31.60;;;;;;;;;;5001555;28;20068;-64
2022/01/03 00:29:26;;;;;;;43.30;31.50;;;;;;;;;;4995196;28;20034;-64
2022/01/03 00:31:54;;;;;;;48.63;33.87;;;;;;;;;;5001545;28;20030;-65
2022/01/03 00:34:20;;;;;;;44.13;33.13;;;;;;;;;;5013934;28;20026;-64
2022/01/03 00:36:50;;;;;;;45.63;32.83;;;;;;;;;;5003681;28;20468;-63
2022/01/03 00:39:16;;;;;;;44.73;34.10;;;;;;;;;;5011092;28;20523;-63
2022/01/03 00:41:43;;;;;;;48.40;33.27;;;;;;;;;;5013185;28;20026;-63
2022/01/03 00:44:09;;;;;;;47.20;33.77;;;;;;;;;;5014517;28;20077;-63
2022/01/03 00:46:36;;;;;;;45.80;33.13;;;;;;;;;;5002742;28;20038;-63
2022/01/03 00:49:03;;;;;;;40.43;31.80;;;;;;;;;;5013273;28;20040;-64
2022/01/03 00:51:29;;;;;;;44.50;32.33;;;;;;;;;;5005290;28;20039;-63
2022/01/03 00:53:55;;;;;;;42.33;31.73;;;;;;;;;;5000345;28;20101;-63
2022/01/03 00:56:35;;;;;;;39.97;30.77;;;;;;;;;;5032312;28;20034;-64
2022/01/03 00:59:10;;;;;;;36.67;30.50;;;;;;;;;;5015251;28;20092;-64
2022/01/03 01:01:37;;;;;;;40.47;30.47;;;;;;;;;;5013486;28;20034;-64
2022/01/03 01:04:03;;;;;;;38.00;28.73;;;;;;;;;;5013247;28;20088;-65
2022/01/03 01:06:33;;;;;;;38.73;30.00;;;;;;;;;;5015559;28;20026;-64
2022/01/03 01:09:00;;;;;;;42.00;30.83;;;;;;;;;;5013679;28;20076;-64
2022/01/03 01:11:28;;;;;;;39.60;30.37;;;;;;;;;;5013845;28;20050;-64
2022/01/03 01:13:54;;;;;;;38.47;29.63;;;;;;;;;;5012677;28;20033;-64
2022/01/03 01:16:21;;;;;;;36.97;28.87;;;;;;;;;;5032212;28;20033;-64
2022/01/03 01:18:47;;;;;;;36.13;29.23;;;;;;;;;;5026619;28;20021;-64
2022/01/03 01:21:14;;;;;;;36.67;28.73;;;;;;;;;;5001757;28;20034;-64
2022/01/03 01:23:41;;;;;;;40.13;30.83;;;;;;;;;;4999246;28;20026;-64
2022/01/03 01:28:52;;;;;;;43.70;31.83;;;;;;;;;;5009113;28;20091;-64
2022/01/03 01:31:22;;;;;;;42.67;32.13;;;;;;;;;;5012392;28;20033;-65
2022/01/03 01:33:51;;;;;;;43.67;32.03;;;;;;;;;;5013331;28;20037;-64
2022/01/03 01:36:18;;;;;;;40.97;30.20;;;;;;;;;;5013389;28;20034;-64
2022/01/03 01:38:47;;;;;;;45.47;32.33;;;;;;;;;;5013710;28;20044;-65
2022/01/03 01:41:14;;;;;;;40.67;29.60;;;;;;;;;;5027206;28;20033;-64
2022/01/03 01:43:44;;;;;;;38.87;29.37;;;;;;;;;;5023954;28;20134;-64
2022/01/03 01:46:13;;;;;;;39.93;31.03;;;;;;;;;;5013043;28;20545;-64
2022/01/03 01:48:40;;;;;;;39.47;30.63;;;;;;;;;;5013267;28;20109;-64
2022/01/03 01:51:07;;;;;;;37.27;29.20;;;;;;;;;;5012659;28;20125;-64
2022/01/03 01:53:36;;;;;;;44.73;30.03;;;;;;;;;;5013724;28;20510;-64
2022/01/03 01:56:03;;;;;;;40.73;30.47;;;;;;;;;;5012934;28;20061;-64
2022/01/03 01:58:30;;;;;;;42.53;29.93;;;;;;;;;;5012427;28;20066;-64
2022/01/03 02:01:03;;;;;;;40.73;31.17;;;;;;;;;;5003993;28;20080;-64
2022/01/03 02:03:37;;;;;;;39.30;30.23;;;;;;;;;;5008073;28;20030;-64
2022/01/03 02:06:23;;;;;;;40.83;30.35;;;;;;;;;;5012212;28;20061;-64
2022/01/03 02:09:06;;;;;;;45.93;30.37;;;;;;;;;;5013460;28;20026;-65
2022/01/03 02:11:35;;;;;;;38.43;29.53;;;;;;;;;;5028107;28;20057;-64
2022/01/03 02:14:01;;;;;;;38.47;29.20;;;;;;;;;;5013856;28;20085;-64
2022/01/03 02:16:27;;;;;;;43.60;29.93;;;;;;;;;;5011577;28;20025;-64
2022/01/03 02:18:53;;;;;;;38.70;29.63;;;;;;;;;;5011571;28;20045;-64
2022/01/03 02:21:21;;;;;;;39.90;29.33;;;;;;;;;;5023749;28;20519;-64
2022/01/03 02:23:47;;;;;;;36.67;28.87;;;;;;;;;;5013529;28;20044;-64
2022/01/03 02:26:13;;;;;;;39.30;27.60;;;;;;;;;;5012354;28;20030;-64
2022/01/03 02:28:39;;;;;;;38.80;26.33;;;;;;;;;;4994331;28;20392;-64
2022/01/03 02:31:05;;;;;;;37.37;28.47;;;;;;;;;;5019004;28;20039;-64
2022/01/03 02:33:32;;;;;;;34.03;25.70;;;;;;;;;;5013590;28;20022;-65
2022/01/03 02:35:59;;;;;;;34.20;26.37;;;;;;;;;;5012279;28;20026;-64
2022/01/03 02:38:25;;;;;;;34.17;26.53;;;;;;;;;;5012623;28;20022;-64
2022/01/03 02:40:51;;;;;;;31.23;24.23;;;;;;;;;;5013398;28;20472;-65
2022/01/03 02:43:17;;;;;;;34.77;24.20;;;;;;;;;;5016512;28;20079;-65
2022/01/03 02:45:43;;;;;;;29.73;23.13;;;;;;;;;;5014626;28;20122;-65
2022/01/03 02:48:11;;;;;;;30.53;23.30;;;;;;;;;;5016099;28;20018;-65
2022/01/03 02:50:39;;;;;;;35.50;25.73;;;;;;;;;;5016012;28;20034;-65
2022/01/03 02:53:05;;;;;;;34.67;26.13;;;;;;;;;;5016602;28;20018;-65
2022/01/03 02:55:32;;;;;;;34.43;26.17;;;;;;;;;;5015933;28;20100;-65
2022/01/03 02:58:05;;;;;;;32.07;25.60;;;;;;;;;;5015386;28;20025;-65
2022/01/03 03:00:32;;;;;;;40.77;26.90;;;;;;;;;;5016039;28;20045;-65
2022/01/03 03:02:58;;;;;;;38.13;25.70;;;;;;;;;;5016026;28;20022;-65
2022/01/03 03:05:24;;;;;;;35.77;25.60;;;;;;;;;;5015584;28;20032;-65
2022/01/03 03:07:53;;;;;;;35.13;24.87;;;;;;;;;;5016701;28;20034;-65
2022/01/03 03:10:21;;;;;;;32.40;25.23;;;;;;;;;;5015207;28;20042;-65
2022/01/03 03:12:47;;;;;;;34.83;25.03;;;;;;;;;;5018727;28;20096;-65
2022/01/03 03:15:14;;;;;;;38.23;26.10;;;;;;;;;;5018014;28;20031;-65
2022/01/03 03:17:40;;;;;;;33.50;24.80;;;;;;;;;;4998480;28;20430;-64
2022/01/03 03:20:08;;;;;;;32.27;24.07;;;;;;;;;;5015725;28;20026;-64
2022/01/03 03:22:34;;;;;;;33.57;23.00;;;;;;;;;;5016645;28;20038;-64
2022/01/03 03:25:17;;;;;;;32.67;22.83;;;;;;;;;;5021215;28;20038;-64
2022/01/03 03:27:45;;;;;;;32.40;24.30;;;;;;;;;;5014087;28;20026;-64
2022/01/03 03:30:12;;;;;;;33.80;24.13;;;;;;;;;;5015376;28;20038;-64
2022/01/03 03:32:39;;;;;;;30.27;23.13;;;;;;;;;;5015686;28;20040;-64
2022/01/03 03:35:06;;;;;;;33.97;24.17;;;;;;;;;;5014986;28;20472;-63
2022/01/03 03:37:32;;;;;;;34.23;23.30;;;;;;;;;;5032829;28;20030;-64
2022/01/03 03:39:58;;;;;;;33.73;22.90;;;;;;;;;;5000614;28;20096;-64
2022/01/03 03:42:24;;;;;;;29.57;22.17;;;;;;;;;;5015784;28;20104;-64
2022/01/03 03:44:50;;;;;;;31.60;22.13;;;;;;;;;;5014959;28;20029;-64
2022/01/03 03:47:16;;;;;;;31.23;22.37;;;;;;;;;;5015684;28;20029;-64
2022/01/03 03:49:42;;;;;;;28.03;21.87;;;;;;;;;;5030319;28;20052;-64
2022/01/03 03:52:08;;;;;;;30.13;21.90;;;;;;;;;;5014705;28;20026;-64
2022/01/03 03:54:35;;;;;;;31.33;22.50;;;;;;;;;;5014587;28;20041;-64
2022/01/03 03:57:01;;;;;;;34.70;21.77;;;;;;;;;;5016395;28;20057;-64
2022/01/03 03:59:27;;;;;;;29.40;22.43;;;;;;;;;;5016627;28;20112;-64
2022/01/03 04:01:54;;;;;;;30.17;21.97;;;;;;;;;;5013435;28;20022;-64
2022/01/03 04:04:20;;;;;;;29.30;21.13;;;;;;;;;;4997606;28;20029;-64
2022/01/03 04:06:47;;;;;;;27.47;20.40;;;;;;;;;;5014593;28;20041;-64
2022/01/03 04:09:13;;;;;;;30.20;21.00;;;;;;;;;;5028678;28;20052;-64
2022/01/03 04:11:39;;;;;;;29.63;19.93;;;;;;;;;;5018761;28;20046;-64
2022/01/03 04:14:06;;;;;;;26.83;20.53;;;;;;;;;;5014825;28;20042;-64
2022/01/03 04:16:32;;;;;;;29.97;21.07;;;;;;;;;;5014496;28;20034;-64
2022/01/03 04:18:58;;;;;;;28.73;22.23;;;;;;;;;;5015403;28;20033;-64
2022/01/03 04:21:25;;;;;;;29.77;21.33;;;;;;;;;;5014264;28;20098;-64
2022/01/03 04:23:51;;;;;;;29.93;22.67;;;;;;;;;;5003115;28;20025;-65
2022/01/03 04:26:17;;;;;;;34.37;22.20;;;;;;;;;;5006706;28;20022;-65
2022/01/03 04:28:44;;;;;;;29.93;22.03;;;;;;;;;;5018664;28;20037;-65
2022/01/03 04:31:10;;;;;;;30.17;21.77;;;;;;;;;;5014181;28;20120;-65
2022/01/03 04:33:36;;;;;;;35.40;22.67;;;;;;;;;;5014852;28;20026;-65
2022/01/03 04:36:03;;;;;;;34.73;23.13;;;;;;;;;;5014482;28;20388;-65
2022/01/03 04:38:29;;;;;;;37.17;21.83;;;;;;;;;;5021733;28;20021;-65
2022/01/03 04:40:55;;;;;;;30.97;21.50;;;;;;;;;;5025521;28;20026;-65
2022/01/03 04:43:21;;;;;;;30.77;21.33;;;;;;;;;;5014663;28;20045;-65
2022/01/03 04:45:49;;;;;;;28.40;21.27;;;;;;;;;;5013266;28;20025;-65
2022/01/03 04:48:15;;;;;;;33.07;21.93;;;;;;;;;;5013758;28;20373;-65
2022/01/03 04:50:41;;;;;;;33.47;21.47;;;;;;;;;;4990164;28;20030;-65
2022/01/03 04:53:07;;;;;;;34.63;22.90;;;;;;;;;;5013381;28;20114;-65
2022/01/03 04:55:33;;;;;;;35.40;23.10;;;;;;;;;;5013874;28;20033;-65
2022/01/03 04:57:59;;;;;;;34.53;23.30;;;;;;;;;;5014011;28;20030;-65
2022/01/03 05:00:25;;;;;;;34.20;22.57;;;;;;;;;;5019057;28;20057;-65
2022/01/03 05:02:51;;;;;;;34.60;22.30;;;;;;;;;;5028731;28;20022;-65
2022/01/03 05:05:18;;;;;;;29.50;21.33;;;;;;;;;;5012269;28;20026;-65
2022/01/03 05:07:44;;;;;;;33.47;22.80;;;;;;;;;;5013773;28;20018;-65
2022/01/03 05:10:10;;;;;;;30.27;21.50;;;;;;;;;;5001348;28;20195;-60
2022/01/03 05:12:36;;;;;;;32.23;21.87;;;;;;;;;;5003512;28;20038;-65
2022/01/03 05:15:02;;;;;;;28.50;20.97;;;;;;;;;;5014574;28;20040;-65
2022/01/03 05:17:29;;;;;;;32.60;21.67;;;;;;;;;;5013014;28;20471;-65
2022/01/03 05:19:55;;;;;;;34.10;21.17;;;;;;;;;;5013810;28;20030;-65
2022/01/03 05:22:21;;;;;;;28.93;20.43;;;;;;;;;;5011573;28;20113;-65
2022/01/03 05:24:47;;;;;;;34.07;21.50;;;;;;;;;;5013253;28;20499;-65
2022/01/03 05:27:13;;;;;;;31.00;20.77;;;;;;;;;;4995425;28;20164;-65
2022/01/03 05:29:39;;;;;;;30.07;22.73;;;;;;;;;;4995948;28;20033;-65
2022/01/03 05:32:05;;;;;;;37.07;21.43;;;;;;;;;;5026270;28;20467;-65
2022/01/03 05:34:31;;;;;;;28.53;20.07;;;;;;;;;;5014621;28;20034;-65
2022/01/03 05:36:57;;;;;;;30.90;21.03;;;;;;;;;;5013137;28;20030;-65
2022/01/03 05:39:23;;;;;;;27.63;19.93;;;;;;;;;;5013569;28;20377;-65
2022/01/03 05:41:49;;;;;;;29.13;19.80;;;;;;;;;;5026704;28;20395;-65
2022/01/03 05:44:15;;;;;;;28.70;19.90;;;;;;;;;;5014009;28;20044;-65
2022/01/03 05:46:41;;;;;;;29.33;20.57;;;;;;;;;;5012844;28;20029;-64
2022/01/03 05:49:08;;;;;;;29.00;21.47;;;;;;;;;;5002919;28;20055;-65
2022/01/03 05:51:34;;;;;;;27.20;19.40;;;;;;;;;;5012857;28;20487;-65
2022/01/03 05:54:00;;;;;;;32.63;19.53;;;;;;;;;;5027844;28;20449;-65
2022/01/03 05:56:26;;;;;;;30.23;21.90;;;;;;;;;;5023440;28;20032;-65
2022/01/03 05:58:52;;;;;;;32.83;20.90;;;;;;;;;;5013240;28;20506;-65
2022/01/03 06:01:23;;;;;;;34.13;22.27;;;;;;;;;;5012650;28;20502;-65
2022/01/03 06:03:58;;;;;;;30.10;20.93;;;;;;;;;;5014819;28;20487;-65
2022/01/03 06:06:53;;;;;;;30.30;20.53;;;;;;;;;;5012899;28;20384;-65
2022/01/03 06:09:11;;;;;;;32.77;21.47;;;;;;;;;;5012154;28;20038;-64
2022/01/03 06:11:37;;;;;;;27.30;19.83;;;;;;;;;;5000659;28;20472;-64
2022/01/03 06:14:03;;;;;;;28.37;20.50;;;;;;;;;;5008384;28;20027;-65
2022/01/03 06:19:33;;;;;;;27.83;19.43;;;;;;;;;;5012884;28;20056;-64
2022/01/03 06:21:59;;;;;;;29.33;18.93;;;;;;;;;;5017558;28;20124;-65
2022/01/03 06:24:25;;;;;;;27.73;18.83;;;;;;;;;;5021120;28;20131;-65
2022/01/03 06:26:51;;;;;;;27.40;18.90;;;;;;;;;;5019183;28;20099;-64
2022/01/03 06:29:21;;;;;;;27.57;19.23;;;;;;;;;;5019289;28;20472;-64
2022/01/03 06:31:47;;;;;;;27.73;18.80;;;;;;;;;;5019148;28;20044;-64
2022/01/03 06:34:14;;;;;;;28.50;19.90;;;;;;;;;;5026210;28;20029;-65
2022/01/03 06:36:40;;;;;;;28.23;19.37;;;;;;;;;;5020124;28;20068;-64
2022/01/03 06:39:07;;;;;;;31.77;20.60;;;;;;;;;;5019437;28;20100;-65
2022/01/03 06:41:34;;;;;;;29.67;20.30;;;;;;;;;;5019335;28;20029;-64
2022/01/03 06:44:00;;;;;;;29.73;20.30;;;;;;;;;;5019646;28;20030;-64
2022/01/03 06:46:26;;;;;;;29.27;20.20;;;;;;;;;;5025348;28;20084;-65
2022/01/03 06:48:52;;;;;;;29.17;20.93;;;;;;;;;;5018024;28;20109;-65
2022/01/03 06:51:18;;;;;;;35.43;21.47;;;;;;;;;;5018761;28;20042;-64
2022/01/03 06:53:44;;;;;;;27.60;18.47;;;;;;;;;;5019283;28;20108;-64
2022/01/03 06:56:10;;;;;;;26.37;18.80;;;;;;;;;;5026686;28;20030;-64
2022/01/03 06:58:38;;;;;;;26.57;18.53;;;;;;;;;;5018996;28;20104;-65
2022/01/03 07:01:04;;;;;;;30.20;20.27;;;;;;;;;;5018661;28;20061;-65
2022/01/03 07:03:30;;;;;;;27.17;18.77;;;;;;;;;;5018068;28;20033;-64
2022/01/03 07:05:56;;;;;;;29.43;20.33;;;;;;;;;;5019623;28;20029;-64
2022/01/03 07:08:22;;;;;;;27.73;18.83;;;;;;;;;;5000558;28;20033;-65
2022/01/03 07:10:49;;;;;;;26.93;18.80;;;;;;;;;;5019165;28;20081;-65
2022/01/03 07:13:16;;;;;;;30.97;19.00;;;;;;;;;;5023026;28;20491;-65
2022/01/03 07:21:11;;;;;;;23.70;18.10;;;;;;;;;;5018708;28;20040;-65
2022/01/03 07:23:38;;;;;;;24.93;18.40;;;;;;;;;;5027759;28;20155;-65
2022/01/03 07:26:04;;;;;;;25.77;17.93;;;;;;;;;;4999525;28;20084;-65
2022/01/03 07:28:30;;;;;;;28.27;20.13;;;;;;;;;;5013736;28;20101;-65
2022/01/03 07:30:56;;;;;;;30.83;19.77;;;;;;;;;;5016018;28;20044;-65
2022/01/03 07:33:22;;;;;;;28.37;19.87;;;;;;;;;;5015175;28;20025;-65
2022/01/03 07:35:48;;;;;;;28.77;21.17;;;;;;;;;;5016332;28;20030;-65
2022/01/03 07:38:15;;;;;;;32.83;21.10;;;;;;;;;;5015009;28;20033;-65
2022/01/03 07:40:41;;;;;;;28.70;20.23;;;;;;;;;;5018112;28;20030;-65
2022/01/03 07:43:07;;;;;;;31.20;21.00;;;;;;;;;;5016733;28;20022;-64
2022/01/03 07:45:33;;;;;;;28.57;21.27;;;;;;;;;;5012634;28;20117;-64
2022/01/03 07:47:59;;;;;;;30.27;22.07;;;;;;;;;;4996951;28;20018;-64
2022/01/03 07:50:25;;;;;;;27.73;20.00;;;;;;;;;;5015766;28;20038;-65
2022/01/03 07:52:52;;;;;;;34.33;21.83;;;;;;;;;;5017734;28;20033;-65
2022/01/03 07:55:19;;;;;;;32.40;20.77;;;;;;;;;;5015714;28;20517;-65
2022/01/03 07:57:45;;;;;;;32.13;21.17;;;;;;;;;;5013927;28;20037;-65
2022/01/03 08:00:12;;;;;;;29.10;19.47;;;;;;;;;;5015459;28;20029;-65
2022/01/03 08:02:40;;;;;;;26.93;19.40;;;;;;;;;;5013071;28;20030;-65
2022/01/03 08:05:08;;;;;;;25.27;18.20;;;;;;;;;;5015519;28;20030;-64
2022/01/03 08:07:34;;;;;;;23.10;17.43;;;;;;;;;;5019662;28;20022;-64
2022/01/03 08:10:07;;;;;;;22.43;16.83;;;;;;;;;;5027759;28;20037;-65
2022/01/03 08:12:33;;;;;;;19.40;16.03;;;;;;;;;;5005240;28;20042;-65
2022/01/03 08:14:59;;;;;;;20.50;16.97;;;;;;;;;;5013402;28;20061;-65
2022/01/03 08:17:26;;;;;;;21.27;15.67;;;;;;;;;;5026271;28;20026;-65
2022/01/03 08:19:52;;;;;;;20.73;14.97;;;;;;;;;;5015808;28;20030;-65
2022/01/03 08:22:18;;;;;;;20.83;14.73;;;;;;;;;;5014654;28;20488;-64
2022/01/03 08:24:47;;;;;;;21.63;14.80;;;;;;;;;;5014877;28;20109;-64
2022/01/03 08:27:13;;;;;;;20.47;15.60;;;;;;;;;;5001776;28;20383;-64
2022/01/03 08:29:39;;;;;;;22.03;16.50;;;;;;;;;;5015317;28;20037;-64
2022/01/03 08:32:05;;;;;;;24.17;16.00;;;;;;;;;;5014487;28;20025;-64
2022/01/03 08:34:31;;;;;;;21.47;15.10;;;;;;;;;;5014283;28;20029;-64
2022/01/03 08:37:00;;;;;;;22.60;16.37;;;;;;;;;;5018737;28;20033;-64
2022/01/03 08:39:26;;;;;;;24.10;16.87;;;;;;;;;;5014385;28;20091;-64
2022/01/03 08:41:52;;;;;;;21.93;16.27;;;;;;;;;;5013217;28;20022;-64
2022/01/03 08:44:18;;;;;;;21.93;16.27;;;;;;;;;;4987664;28;20044;-64
2022/01/03 08:46:46;;;;;;;24.60;16.47;;;;;;;;;;5013754;28;20116;-64
2022/01/03 08:49:12;;;;;;;22.23;15.63;;;;;;;;;;5014351;28;20109;-65
2022/01/03 08:51:38;;;;;;;24.70;17.00;;;;;;;;;;5014231;28;20038;-64
2022/01/03 08:54:04;;;;;;;20.43;16.30;;;;;;;;;;5016935;28;20025;-65
2022/01/03 08:56:30;;;;;;;23.63;17.17;;;;;;;;;;5029532;28;20498;-64
2022/01/03 08:58:56;;;;;;;28.50;17.30;;;;;;;;;;5013830;28;20026;-64
2022/01/03 09:01:22;;;;;;;26.63;16.77;;;;;;;;;;5021427;28;20475;-65
2022/01/03 09:03:50;;;;;;;23.20;17.10;;;;;;;;;;5014122;28;20037;-64
2022/01/03 09:06:17;;;;;;;23.27;16.77;;;;;;;;;;5014617;28;20033;-65
2022/01/03 09:08:43;;;;;;;26.33;18.23;;;;;;;;;;5015990;28;20033;-64
2022/01/03 09:11:09;;;;;;;22.10;18.07;;;;;;;;;;5013753;28;20073;-64
2022/01/03 09:13:36;;;;;;;25.67;17.83;;;;;;;;;;5008973;28;20610;-64
2022/01/03 09:16:06;;;;;;;30.23;19.10;;;;;;;;;;5013828;28;20088;-65
2022/01/03 09:18:33;;;;;;;23.63;18.20;;;;;;;;;;5012507;28;20033;-65
2022/01/03 09:20:59;;;;;;;24.70;18.13;;;;;;;;;;5009868;28;20018;-65
2022/01/03 09:23:29;;;;;;;22.47;17.07;;;;;;;;;;5013181;28;20399;-65
2022/01/03 09:28:49;;;;;;;21.27;16.88;;;;;;;;;;5010771;28;20099;-65
2022/01/03 09:31:16;;;;;;;19.87;16.40;;;;;;;;;;5033054;28;20045;-64
2022/01/03 09:33:42;;;;;;;24.47;17.03;;;;;;;;;;5015708;28;20032;-65
2022/01/03 09:36:08;;;;;;;20.37;17.20;;;;;;;;;;4995882;28;20112;-64
2022/01/03 09:38:36;;;;;;;22.37;17.27;;;;;;;;;;5012442;28;20496;-64
2022/01/03 09:41:24;;;;;;;20.80;16.43;;;;;;;;;;5001266;28;20033;-65
2022/01/03 09:43:52;;;;;;;21.63;16.60;;;;;;;;;;4996931;28;20088;-65
2022/01/03 09:46:47;;;;;;;20.30;15.07;;;;;;;;;;5013108;28;20026;-65
2022/01/03 09:49:13;;;;;;;;;;;;;;;;;;5001217;28;20029;-65
2022/01/03 09:51:40;;;;;;;23.50;16.20;;;;;;;;;;5028977;28;19920;-65
2022/01/03 09:54:08;;;;;;;20.40;16.17;;;;;;;;;;5011926;28;20053;-64
2022/01/03 09:56:34;;;;;;;24.70;16.73;;;;;;;;;;5013205;28;20068;-65
2022/01/03 09:59:01;;;;;;;23.57;16.60;;;;;;;;;;5012236;28;20026;-65
2022/01/03 10:01:27;;;;;;;21.07;16.90;;;;;;;;;;5018880;28;20040;-65
2022/01/03 10:03:54;;;;;;;21.97;16.77;;;;;;;;;;5012488;28;20049;-64
2022/01/03 10:06:20;;;;;;;24.33;18.17;;;;;;;;;;5013202;28;20053;-65
2022/01/03 10:08:47;;;;;;;23.57;17.27;;;;;;;;;;5012010;28;20437;-65
2022/01/03 10:11:14;;;;;;;24.53;18.37;;;;;;;;;;5012948;28;20041;-65
2022/01/03 10:13:40;;;;;;;26.70;18.47;;;;;;;;;;5010223;28;20037;-65
2022/01/03 10:16:07;;;;;;;23.37;17.70;;;;;;;;;;5013027;28;20034;-65
2022/01/03 10:18:33;;;;;;;22.10;17.60;;;;;;;;;;5011985;28;20495;-64
2022/01/03 10:21:00;;;;;;;22.80;18.20;;;;;;;;;;5011103;28;20030;-65
2022/01/03 10:23:27;;;;;;;23.00;17.67;;;;;;;;;;5000348;28;20040;-65
2022/01/03 10:25:53;;;;;;;24.87;17.97;;;;;;;;;;5011871;28;20040;-65
2022/01/03 10:28:26;;;;;;;24.30;18.17;;;;;;;;;;5012498;28;20030;-65
2022/01/03 10:30:53;;;;;;;27.77;19.70;;;;;;;;;;5022008;28;20037;-65
2022/01/03 10:33:20;;;;;;;25.87;18.77;;;;;;;;;;5021070;28;20057;-65
2022/01/03 10:35:47;;;;;;;26.93;18.80;;;;;;;;;;4994506;28;20030;-64
2022/01/03 10:38:32;;;;;;;24.67;18.97;;;;;;;;;;5012376;28;20438;-64
2022/01/03 10:41:17;;;;;;;26.40;18.77;;;;;;;;;;5014446;28;20073;-64
2022/01/03 10:43:44;;;;;;;28.20;19.90;;;;;;;;;;5016745;28;20107;-64
2022/01/03 10:46:21;;;;;;;30.37;19.17;;;;;;;;;;5012618;28;20018;-65
2022/01/03 10:48:47;;;;;;;29.93;21.80;;;;;;;;;;5011662;28;20033;-64
2022/01/03 10:51:20;;;;;;;28.30;20.80;;;;;;;;;;5014627;28;20046;-65
2022/01/03 10:53:46;;;;;;;28.20;20.90;;;;;;;;;;4980338;28;20101;-64
2022/01/03 10:56:28;;;;;;;26.67;21.77;;;;;;;;;;5013400;28;20153;-65
2022/01/03 10:58:54;;;;;;;27.40;19.77;;;;;;;;;;5012049;28;20467;-65
2022/01/03 11:01:21;;;;;;;27.10;20.47;;;;;;;;;;5017388;28;20029;-65
2022/01/03 11:03:47;;;;;;;26.33;19.73;;;;;;;;;;5020394;28;20053;-64
2022/01/03 11:06:24;;;;;;;27.90;20.27;;;;;;;;;;5015826;28;20413;-64
2022/01/03 11:11:35;;;;;;;;;;;;;;;;;;5016945;28;20056;-64
2022/01/03 11:14:01;;;;;;;29.83;19.17;;;;;;;;;;5011527;28;20004;-64
2022/01/03 11:16:34;;;;;;;25.90;19.00;;;;;;;;;;5016247;28;20033;-63
2022/01/03 11:19:00;;;;;;;27.53;18.57;;;;;;;;;;5014600;28;20061;-65
2022/01/03 11:21:28;;;;;;;24.80;18.47;;;;;;;;;;5016322;28;20472;-64
2022/01/03 11:24:00;;;;;;;26.40;20.43;;;;;;;;;;5013511;28;20080;-64
2022/01/03 11:26:26;;;;;;;27.10;20.27;;;;;;;;;;5015539;28;20022;-64
2022/01/03 11:28:52;;;;;;;25.23;18.80;;;;;;;;;;4989373;28;20034;-64
2022/01/03 11:31:20;;;;;;;25.90;19.53;;;;;;;;;;4996209;28;20393;-65
2022/01/03 11:33:47;;;;;;;27.53;20.67;;;;;;;;;;5009389;28;20491;-65
2022/01/03 11:36:13;;;;;;;27.77;19.90;;;;;;;;;;5017310;28;20038;-65
2022/01/03 11:38:40;;;;;;;27.80;20.33;;;;;;;;;;5018575;28;20038;-65
2022/01/03 11:41:08;;;;;;;29.13;21.17;;;;;;;;;;5015963;28;20034;-65
2022/01/03 11:43:34;;;;;;;29.10;20.00;;;;;;;;;;5014317;28;20026;-65
2022/01/03 11:46:01;;;;;;;26.70;19.23;;;;;;;;;;5015784;28;20037;-65
2022/01/03 11:48:28;;;;;;;28.83;20.70;;;;;;;;;;5014539;28;20101;-65
2022/01/03 11:50:55;;;;;;;26.23;19.00;;;;;;;;;;5015490;28;20049;-65
2022/01/03 11:53:23;;;;;;;25.77;19.77;;;;;;;;;;5014030;28;20033;-65
2022/01/03 11:55:56;;;;;;;26.90;19.33;;;;;;;;;;5016326;28;20050;-64
2022/01/03 11:58:44;;;;;;;29.77;20.67;;;;;;;;;;5014714;28;20101;-64
2022/01/03 12:03:56;;;;;;;28.38;20.17;;;;;;;;;;5012682;28;20530;-64
2022/01/03 12:06:24;;;;;;;26.77;19.63;;;;;;;;;;5015589;28;20121;-65
2022/01/03 12:08:55;;;;;;;27.10;19.83;;;;;;;;;;5014346;28;20041;-64
2022/01/03 12:11:22;;;;;;;26.67;20.03;;;;;;;;;;5003701;28;20049;-64
2022/01/03 12:13:54;;;;;;;24.77;18.03;;;;;;;;;;5008632;28;20158;-64
2022/01/03 12:16:37;;;;;;;25.43;19.67;;;;;;;;;;5014966;28;20029;-65
2022/01/03 12:19:06;;;;;;;29.17;19.40;;;;;;;;;;5013705;28;20488;-64
2022/01/03 12:21:50;;;;;;;26.13;20.23;;;;;;;;;;5004591;28;20041;-64
2022/01/03 12:24:25;;;;;;;26.23;19.27;;;;;;;;;;5018461;28;20475;-65
2022/01/03 12:26:51;;;;;;;;;;;;;;;;;;5015296;28;20072;-65
2022/01/03 12:29:17;;;;;;;27.43;20.23;;;;;;;;;;5014071;28;19913;-65
2022/01/03 12:32:02;;;;;;;26.97;20.47;;;;;;;;;;5014495;28;20137;-65
2022/01/03 12:34:28;;;;;;;29.05;21.15;;;;;;;;;;4996468;28;20431;-65
2022/01/03 12:37:13;;;;;;;31.23;21.30;;;;;;;;;;5018158;28;20025;-65
2022/01/03 12:39:57;;;;;;;28.55;21.42;;;;;;;;;;5013314;28;20379;-65
2022/01/03 12:42:42;;;;;;;28.08;20.63;;;;;;;;;;5014946;28;20104;-65
2022/01/03 12:45:08;;;;;;;29.40;21.30;;;;;;;;;;5008713;28;20053;-65
2022/01/03 12:47:38;;;;;;;29.97;21.73;;;;;;;;;;5022009;28;20072;-65
2022/01/03 12:50:20;;;;;;;29.70;21.43;;;;;;;;;;5014405;28;20510;-65
2022/01/03 12:52:46;;;;;;;29.10;21.33;;;;;;;;;;5020641;28;20018;-65
2022/01/03 12:55:33;;;;;;;31.90;21.47;;;;;;;;;;5014430;28;20034;-65
2022/01/03 12:57:59;;;;;;;31.57;23.07;;;;;;;;;;5018383;28;20080;-65
2022/01/03 13:00:45;;;;;;;33.23;22.67;;;;;;;;;;5013872;28;20491;-65
2022/01/03 13:03:29;;;;;;;33.87;24.30;;;;;;;;;;5012797;28;20053;-65
2022/01/03 13:06:07;;;;;;;34.38;24.50;;;;;;;;;;5014403;28;20484;-65
2022/01/03 13:08:34;;;;;;;32.80;24.17;;;;;;;;;;5014396;28;20503;-65
2022/01/03 13:11:01;;;;;;;34.23;24.23;;;;;;;;;;5019858;28;20057;-65
2022/01/03 13:13:28;;;;;;;33.40;24.17;;;;;;;;;;5012884;28;20081;-65
2022/01/03 13:15:54;;;;;;;37.50;25.20;;;;;;;;;;5014217;28;20030;-65
2022/01/03 13:18:20;;;;;;;34.33;23.17;;;;;;;;;;5010145;28;20072;-64
2022/01/03 13:20:59;;;;;;;38.63;23.93;;;;;;;;;;5014163;28;20025;-65
2022/01/03 13:23:26;;;;;;;35.93;25.30;;;;;;;;;;5013339;28;20068;-65
2022/01/03 13:26:12;;;;;;;39.53;25.20;;;;;;;;;;5011854;28;20483;-65
2022/01/03 13:28:45;;;;;;;39.50;25.33;;;;;;;;;;5011384;28;20030;-65
2022/01/03 13:31:11;;;;;;;36.67;24.10;;;;;;;;;;5013256;28;20551;-65
2022/01/03 13:33:37;;;;;;;35.70;24.77;;;;;;;;;;5012371;28;20554;-65
2022/01/03 13:36:04;;;;;;;34.03;24.83;;;;;;;;;;5013888;28;20361;-65
2022/01/03 13:38:31;;;;;;;35.50;24.63;;;;;;;;;;5022145;28;20022;-64
2022/01/03 13:41:13;;;;;;;30.30;22.77;;;;;;;;;;5033734;28;20036;-65
2022/01/03 13:43:47;;;;;;;36.27;24.10;;;;;;;;;;5018942;28;20030;-64
2022/01/03 13:49:23;;;;;;;35.07;24.33;;;;;;;;;;5014455;28;20404;-65
2022/01/03 13:51:48;;;;;;;43.70;26.23;;;;;;;;;;5013254;28;20041;-65
2022/01/03 13:54:31;;;;;;;36.03;25.50;;;;;;;;;;5016757;28;20100;-64
2022/01/03 13:56:58;;;;;;;33.90;24.23;;;;;;;;;;5014137;28;20030;-65
2022/01/03 13:59:25;;;;;;;36.17;25.70;;;;;;;;;;5011143;28;20030;-64
2022/01/03 14:01:52;;;;;;;36.10;25.00;;;;;;;;;;5013170;28;20534;-64
2022/01/03 14:04:19;;;;;;;35.33;25.60;;;;;;;;;;5017856;28;20434;-64
2022/01/03 14:06:45;;;;;;;37.70;25.37;;;;;;;;;;5015946;28;20109;-64
2022/01/03 14:09:12;;;;;;;43.53;28.13;;;;;;;;;;5012231;28;20030;-64
2022/01/03 14:11:38;;;;;;;35.73;25.90;;;;;;;;;;5013018;28;20399;-64
2022/01/03 14:14:08;;;;;;;39.37;27.07;;;;;;;;;;4996149;28;20539;-64
2022/01/03 14:16:49;;;;;;;40.50;27.37;;;;;;;;;;4993294;28;20054;-64
2022/01/03 14:19:15;;;;;;;39.33;26.13;;;;;;;;;;5008313;28;20046;-64
2022/01/03 14:21:41;;;;;;;38.27;28.27;;;;;;;;;;5012928;28;20542;-64
2022/01/03 14:24:08;;;;;;;44.97;27.83;;;;;;;;;;5012419;28;20034;-64
2022/01/03 14:26:34;;;;;;;41.83;27.73;;;;;;;;;;5012132;28;20026;-64
2022/01/03 14:29:13;;;;;;;41.60;28.70;;;;;;;;;;5011283;28;20037;-64
2022/01/03 14:31:39;;;;;;;39.03;27.70;;;;;;;;;;5012176;28;20586;-64
2022/01/03 14:34:05;;;;;;;41.97;28.83;;;;;;;;;;5012334;28;20050;-64
2022/01/03 14:36:37;;;;;;;39.60;28.73;;;;;;;;;;4996678;28;20065;-65
2022/01/03 14:39:03;;;;;;;44.50;28.10;;;;;;;;;;5011755;28;20026;-64
2022/01/03 14:41:29;;;;;;;43.63;29.63;;;;;;;;;;5016838;28;20160;-65
2022/01/03 14:44:02;;;;;;;43.80;27.67;;;;;;;;;;5015000;28;20108;-64
2022/01/03 14:46:28;;;;;;;42.67;27.73;;;;;;;;;;5018198;28;20483;-64
2022/01/03 14:48:55;;;;;;;44.00;29.33;;;;;;;;;;5015666;28;20491;-65